createdAt,value
2017-08-24T00:00:49.875Z,0
2017-08-24T00:01:59.805Z,0
2017-08-24T00:03:09.112Z,0
2017-08-24T00:04:19.054Z,0
2017-08-24T00:05:29.307Z,0
2017-08-24T00:06:38.930Z,0
2017-08-24T00:07:48.639Z,0
2017-08-24T00:08:58.242Z,0
2017-08-24T00:10:08.157Z,0
2017-08-24T00:11:18.196Z,0
2017-08-24T00:12:28.174Z,0
2017-08-24T00:13:37.471Z,0
2017-08-24T00:14:47.096Z,0
2017-08-24T00:15:57.031Z,0
2017-08-24T00:17:07.554Z,0
2017-08-24T00:18:17.786Z,0
2017-08-24T00:19:28.025Z,0
2017-08-24T00:20:37.940Z,0
2017-08-24T00:21:47.551Z,0
2017-08-24T00:22:57.842Z,0
2017-08-24T00:24:07.461Z,0
2017-08-24T00:25:17.378Z,0
2017-08-24T00:26:27.604Z,0
2017-08-24T00:27:37.832Z,0
2017-08-24T00:28:47.808Z,0
2017-08-24T00:29:57.428Z,0
2017-08-24T00:31:07.665Z,0
2017-08-24T00:32:17.278Z,0
2017-08-24T00:33:27.207Z,0
2017-08-24T00:34:37.115Z,0
2017-08-24T00:35:47.034Z,0
2017-08-24T00:36:56.954Z,0
2017-08-24T00:38:06.570Z,0
2017-08-24T00:39:15.881Z,0
2017-08-24T00:40:26.161Z,0
2017-08-24T00:41:36.408Z,0
2017-08-24T00:42:46.331Z,0
2017-08-24T00:43:56.560Z,0
2017-08-24T00:45:06.493Z,0
2017-08-24T00:46:15.938Z,0
2017-08-24T00:47:25.924Z,0
2017-08-24T00:48:35.573Z,0
2017-08-24T00:49:45.525Z,0
2017-08-24T00:50:55.186Z,0
2017-08-24T00:52:05.488Z,0
2017-08-24T00:53:15.423Z,0
2017-08-24T00:54:25.025Z,0
2017-08-24T00:55:35.257Z,0
2017-08-24T00:56:45.496Z,0
2017-08-24T00:57:55.725Z,0
2017-08-24T00:59:05.028Z,0
2017-08-24T01:00:14.964Z,0
2017-08-24T01:01:25.201Z,0
2017-08-24T01:02:35.121Z,0
2017-08-24T01:03:45.137Z,0
2017-08-24T01:04:54.750Z,0
2017-08-24T01:06:04.365Z,0
2017-08-24T01:07:14.012Z,0
2017-08-24T01:08:23.623Z,0
2017-08-24T01:09:33.866Z,0
2017-08-24T01:10:43.787Z,0
2017-08-24T01:11:54.016Z,0
2017-08-24T01:13:03.351Z,0
2017-08-24T01:14:13.343Z,0
2017-08-24T01:15:23.304Z,0
2017-08-24T01:16:32.937Z,0
2017-08-24T01:17:42.568Z,0
2017-08-24T01:18:52.820Z,0
2017-08-24T01:20:01.853Z,0
2017-08-24T01:21:11.489Z,0
2017-08-24T01:22:21.111Z,0
2017-08-24T01:23:31.019Z,0
2017-08-24T01:24:41.242Z,0
2017-08-24T01:25:51.180Z,0
2017-08-24T01:27:00.972Z,0
2017-08-24T01:28:11.192Z,0
2017-08-24T01:29:21.114Z,0
2017-08-24T01:30:31.331Z,0
2017-08-24T01:31:41.260Z,0
2017-08-24T01:32:50.858Z,0
2017-08-24T01:34:00.475Z,0
2017-08-24T01:35:10.422Z,0
2017-08-24T01:36:20.636Z,0
2017-08-24T01:37:30.860Z,0
2017-08-24T01:38:41.087Z,0
2017-08-24T01:39:50.998Z,0
2017-08-24T01:41:01.218Z,0
2017-08-24T01:42:11.463Z,0
2017-08-24T01:43:21.378Z,0
2017-08-24T01:44:31.707Z,0
2017-08-24T01:45:41.309Z,0
2017-08-24T01:46:51.227Z,0
2017-08-24T01:48:00.874Z,0
2017-08-24T01:49:10.805Z,0
2017-08-24T01:50:20.730Z,0
2017-08-24T01:51:30.951Z,0
2017-08-24T01:52:40.579Z,0
2017-08-24T01:53:50.904Z,0
2017-08-24T01:55:00.878Z,0
2017-08-24T01:56:10.942Z,0
2017-08-24T01:57:21.173Z,0
2017-08-24T01:58:31.406Z,0
2017-08-24T01:59:41.319Z,0
2017-08-24T02:00:51.568Z,0
2017-08-24T02:02:01.485Z,0
2017-08-24T02:03:11.555Z,0
2017-08-24T02:04:20.853Z,0
2017-08-24T02:05:30.829Z,0
2017-08-24T02:06:40.440Z,0
2017-08-24T02:07:51.032Z,0
2017-08-24T02:09:00.029Z,0
2017-08-24T02:10:09.345Z,0
2017-08-24T02:11:19.572Z,0
2017-08-24T02:12:29.533Z,0
2017-08-24T02:13:39.143Z,0
2017-08-24T02:14:48.778Z,0
2017-08-24T02:15:58.411Z,0
2017-08-24T02:17:08.385Z,0
2017-08-24T02:18:18.012Z,0
2017-08-24T02:19:28.101Z,0
2017-08-24T02:20:38.031Z,0
2017-08-24T02:21:47.643Z,0
2017-08-24T02:22:57.884Z,0
2017-08-24T02:24:07.801Z,0
2017-08-24T02:25:17.423Z,0
2017-08-24T02:26:27.028Z,0
2017-08-24T02:27:36.638Z,0
2017-08-24T02:28:46.554Z,0
2017-08-24T02:29:56.185Z,0
2017-08-24T02:31:06.480Z,0
2017-08-24T02:32:16.696Z,0
2017-08-24T02:33:26.625Z,0
2017-08-24T02:34:36.840Z,0
2017-08-24T02:35:46.473Z,0
2017-08-24T02:36:56.394Z,0
2017-08-24T02:38:06.618Z,0
2017-08-24T02:39:16.528Z,0
2017-08-24T02:40:26.449Z,0
2017-08-24T02:41:36.682Z,0
2017-08-24T02:42:46.621Z,0
2017-08-24T02:43:56.552Z,0
2017-08-24T02:45:06.162Z,0
2017-08-24T02:46:16.397Z,0
2017-08-24T02:47:26.013Z,0
2017-08-24T02:48:36.591Z,0
2017-08-24T02:49:46.508Z,0
2017-08-24T02:50:56.729Z,0
2017-08-24T02:52:06.956Z,0
2017-08-24T02:53:16.888Z,0
2017-08-24T02:54:26.575Z,0
2017-08-24T02:55:36.805Z,0
2017-08-24T02:56:47.038Z,0
2017-08-24T02:57:56.347Z,0
2017-08-24T02:59:05.969Z,0
2017-08-24T03:00:16.219Z,0
2017-08-24T03:01:26.156Z,0
2017-08-24T03:02:36.087Z,0
2017-08-24T03:03:46.016Z,0
2017-08-24T03:04:55.942Z,0
2017-08-24T03:06:05.976Z,0
2017-08-24T03:07:15.609Z,0
2017-08-24T03:08:25.877Z,0
2017-08-24T03:09:35.851Z,0
2017-08-24T03:10:45.467Z,0
2017-08-24T03:11:55.717Z,0
2017-08-24T03:13:06.014Z,0
2017-08-24T03:14:15.977Z,0
2017-08-24T03:15:26.208Z,0
2017-08-24T03:16:35.821Z,0
2017-08-24T03:17:45.731Z,0
2017-08-24T03:18:55.673Z,0
2017-08-24T03:20:04.997Z,0
2017-08-24T03:21:14.923Z,0
2017-08-24T03:22:25.158Z,0
2017-08-24T03:23:35.240Z,0
2017-08-24T03:24:44.858Z,0
2017-08-24T03:25:54.493Z,0
2017-08-24T03:27:04.728Z,0
2017-08-24T03:28:14.960Z,0
2017-08-24T03:29:25.207Z,0
2017-08-24T03:30:35.455Z,0
2017-08-24T03:31:45.058Z,0
2017-08-24T03:32:54.978Z,0
2017-08-24T03:34:04.597Z,0
2017-08-24T03:35:14.245Z,0
2017-08-24T03:36:24.460Z,0
2017-08-24T03:37:34.074Z,0
2017-08-24T03:38:43.984Z,0
2017-08-24T03:39:54.208Z,0
2017-08-24T03:41:04.185Z,0
2017-08-24T03:42:14.098Z,0
2017-08-24T03:43:24.015Z,0
2017-08-24T03:44:34.243Z,0
2017-08-24T03:45:43.565Z,0
2017-08-24T03:46:52.932Z,0
2017-08-24T03:48:02.846Z,0
2017-08-24T03:49:12.451Z,0
2017-08-24T03:50:22.682Z,0
2017-08-24T03:51:32.626Z,0
2017-08-24T03:52:42.723Z,0
2017-08-24T03:53:52.973Z,0
2017-08-24T03:55:02.898Z,0
2017-08-24T03:56:12.815Z,0
2017-08-24T03:57:23.029Z,0
2017-08-24T03:58:33.004Z,0
2017-08-24T03:59:42.312Z,0
2017-08-24T04:00:52.554Z,0
2017-08-24T04:02:02.170Z,0
2017-08-24T04:03:12.407Z,0
2017-08-24T04:04:22.370Z,0
2017-08-24T04:08:04.649Z,0
2017-08-24T04:09:14.271Z,0
2017-08-24T04:10:24.182Z,0
2017-08-24T04:14:06.166Z,0
2017-08-24T04:15:16.101Z,4
2017-08-24T04:16:26.060Z,4
2017-08-24T04:17:35.979Z,4
2017-08-24T04:18:45.900Z,4
2017-08-24T04:19:55.822Z,4
2017-08-24T04:21:05.888Z,4
2017-08-24T04:22:15.494Z,8
2017-08-24T04:23:25.744Z,8
2017-08-24T04:24:35.992Z,12
2017-08-24T04:25:45.611Z,12
2017-08-24T04:26:55.417Z,12
2017-08-24T04:28:05.644Z,16
2017-08-24T04:29:15.885Z,16
2017-08-24T04:30:26.139Z,16
2017-08-24T04:31:36.073Z,16
2017-08-24T04:32:45.866Z,20
2017-08-24T04:33:55.502Z,20
2017-08-24T04:35:05.422Z,24
2017-08-24T04:36:15.358Z,24
2017-08-24T04:37:25.286Z,32
2017-08-24T04:38:35.505Z,36
2017-08-24T04:39:45.120Z,40
2017-08-24T04:40:54.721Z,52
2017-08-24T04:42:04.940Z,52
2017-08-24T04:43:14.251Z,60
2017-08-24T04:44:24.154Z,72
2017-08-24T04:45:34.383Z,80
2017-08-24T04:46:44.627Z,88
2017-08-24T04:47:54.569Z,92
2017-08-24T04:49:04.477Z,100
2017-08-24T04:50:14.435Z,108
2017-08-24T04:51:24.432Z,112
2017-08-24T04:52:34.046Z,120
2017-08-24T04:53:43.970Z,128
2017-08-24T04:54:53.897Z,136
2017-08-24T04:56:03.848Z,148
2017-08-24T04:57:13.760Z,164
2017-08-24T04:58:23.685Z,180
2017-08-24T04:59:33.909Z,204
2017-08-24T05:00:44.130Z,224
2017-08-24T05:01:53.739Z,240
2017-08-24T05:03:03.657Z,244
2017-08-24T05:04:13.574Z,240
2017-08-24T05:05:23.478Z,236
2017-08-24T05:06:33.086Z,228
2017-08-24T05:07:43.155Z,208
2017-08-24T05:08:53.389Z,192
2017-08-24T05:10:03.316Z,196
2017-08-24T05:11:32.427Z,220
2017-08-24T05:12:42.654Z,240
2017-08-24T05:13:52.614Z,252
2017-08-24T05:15:02.859Z,256
2017-08-24T05:16:12.782Z,264
2017-08-24T05:17:22.717Z,260
2017-08-24T05:18:32.742Z,264
2017-08-24T05:19:42.680Z,272
2017-08-24T05:20:52.619Z,292
2017-08-24T05:22:03.053Z,312
2017-08-24T05:23:12.668Z,340
2017-08-24T05:24:22.662Z,360
2017-08-24T05:25:32.890Z,388
2017-08-24T05:26:42.801Z,428
2017-08-24T05:27:52.728Z,440
2017-08-24T05:29:02.653Z,404
2017-08-24T05:30:12.405Z,368
2017-08-24T05:31:22.320Z,356
2017-08-24T05:32:32.235Z,356
2017-08-24T05:33:42.451Z,356
2017-08-24T05:34:52.369Z,344
2017-08-24T05:36:02.641Z,332
2017-08-24T05:37:11.942Z,340
2017-08-24T05:38:21.559Z,360
2017-08-24T05:39:31.779Z,388
2017-08-24T05:40:41.699Z,416
2017-08-24T05:41:51.449Z,448
2017-08-24T05:43:01.681Z,472
2017-08-24T05:44:11.591Z,492
2017-08-24T05:45:21.808Z,500
2017-08-24T05:46:32.028Z,512
2017-08-24T05:47:42.092Z,528
2017-08-24T05:48:51.716Z,544
2017-08-24T05:50:01.031Z,564
2017-08-24T05:51:10.949Z,580
2017-08-24T05:52:20.895Z,596
2017-08-24T05:53:30.932Z,620
2017-08-24T05:54:40.851Z,668
2017-08-24T05:55:50.481Z,704
2017-08-24T05:56:59.785Z,728
2017-08-24T05:58:09.400Z,764
2017-08-24T05:59:19.319Z,788
2017-08-24T06:00:29.568Z,828
2017-08-24T06:01:39.488Z,864
2017-08-24T06:02:49.782Z,908
2017-08-24T06:03:59.708Z,948
2017-08-24T06:05:09.968Z,964
2017-08-24T06:06:20.205Z,956
2017-08-24T06:07:29.832Z,944
2017-08-24T06:08:39.123Z,924
2017-08-24T06:09:49.057Z,912
2017-08-24T06:10:58.663Z,884
2017-08-24T06:12:08.274Z,844
2017-08-24T06:13:18.202Z,832
2017-08-24T06:14:28.433Z,836
2017-08-24T06:15:38.378Z,848
2017-08-24T06:16:48.619Z,864
2017-08-24T06:17:58.844Z,900
2017-08-24T06:19:09.071Z,944
2017-08-24T06:20:19.001Z,1004
2017-08-24T06:21:29.152Z,1064
2017-08-24T06:22:38.784Z,1108
2017-08-24T06:23:48.706Z,1160
2017-08-24T06:24:58.951Z,1224
2017-08-24T06:26:09.182Z,1304
2017-08-24T06:27:19.426Z,1380
2017-08-24T06:28:28.838Z,1432
2017-08-24T06:29:38.487Z,1468
2017-08-24T06:30:48.108Z,1496
2017-08-24T06:31:57.417Z,1548
2017-08-24T06:33:07.340Z,1588
2017-08-24T06:34:17.293Z,1576
2017-08-24T06:35:26.918Z,1552
2017-08-24T06:36:36.526Z,1616
2017-08-24T06:37:46.752Z,1616
2017-08-24T06:38:57.003Z,1584
2017-08-24T06:40:07.407Z,1580
2017-08-24T06:41:17.639Z,1624
2017-08-24T06:42:27.866Z,1672
2017-08-24T06:43:37.501Z,1720
2017-08-24T06:44:47.416Z,1760
2017-08-24T06:45:57.187Z,1808
2017-08-24T06:47:06.808Z,1836
2017-08-24T06:48:16.762Z,1888
2017-08-24T06:49:26.997Z,1876
2017-08-24T06:50:36.925Z,1748
2017-08-24T06:51:47.000Z,1696
2017-08-24T06:52:56.620Z,1692
2017-08-24T06:54:05.934Z,1716
2017-08-24T06:55:15.558Z,1772
2017-08-24T06:56:25.203Z,1816
2017-08-24T06:57:35.456Z,1856
2017-08-24T06:58:45.698Z,1928
2017-08-24T06:59:55.615Z,2012
2017-08-24T07:01:05.244Z,2008
2017-08-24T07:02:14.876Z,2084
2017-08-24T07:03:24.956Z,2080
2017-08-24T07:04:34.887Z,2124
2017-08-24T07:05:45.132Z,2084
2017-08-24T07:06:54.758Z,2152
2017-08-24T07:08:04.979Z,2220
2017-08-24T07:09:15.058Z,2348
2017-08-24T07:10:24.695Z,2512
2017-08-24T07:11:34.926Z,2564
2017-08-24T07:12:44.852Z,2688
2017-08-24T07:13:54.777Z,3236
2017-08-24T07:15:04.803Z,3040
2017-08-24T07:16:14.733Z,3240
2017-08-24T07:17:24.664Z,2992
2017-08-24T07:18:34.274Z,2620
2017-08-24T07:19:44.515Z,2032
2017-08-24T07:20:54.598Z,2800
2017-08-24T07:22:04.515Z,2936
2017-08-24T07:23:14.155Z,2880
2017-08-24T07:24:24.153Z,2936
2017-08-24T07:25:33.727Z,2960
2017-08-24T07:26:43.243Z,3016
2017-08-24T07:27:52.929Z,3000
2017-08-24T07:29:02.568Z,3056
2017-08-24T07:30:12.807Z,3188
2017-08-24T07:31:22.723Z,3304
2017-08-24T07:32:32.493Z,3388
2017-08-24T07:33:42.417Z,3484
2017-08-24T07:34:51.725Z,3684
2017-08-24T07:36:02.012Z,3784
2017-08-24T07:37:11.660Z,4044
2017-08-24T07:38:21.079Z,4496
2017-08-24T07:39:31.338Z,5316
2017-08-24T07:40:41.601Z,7408
2017-08-24T07:41:51.845Z,9588
2017-08-24T07:43:01.813Z,12760
2017-08-24T07:44:11.784Z,19904
2017-08-24T07:45:21.712Z,21920
2017-08-24T07:46:31.673Z,14256
2017-08-24T07:47:41.289Z,8504
2017-08-24T07:48:51.535Z,7716
2017-08-24T07:50:01.938Z,7600
2017-08-24T07:51:11.851Z,7420
2017-08-24T07:52:22.107Z,6716
2017-08-24T07:53:32.336Z,6804
2017-08-24T07:54:41.969Z,6840
2017-08-24T07:55:51.972Z,7340
2017-08-24T07:57:01.641Z,6820
2017-08-24T07:58:10.993Z,6340
2017-08-24T07:59:20.931Z,6988
2017-08-24T08:00:30.876Z,4640
2017-08-24T08:01:40.910Z,5680
2017-08-24T08:02:50.834Z,5460
2017-08-24T08:04:00.791Z,5476
2017-08-24T08:05:10.146Z,4584
2017-08-24T08:06:19.788Z,4500
2017-08-24T08:07:29.564Z,4348
2017-08-24T08:08:39.815Z,4548
2017-08-24T08:09:49.734Z,3928
2017-08-24T08:10:59.359Z,3932
2017-08-24T08:12:08.991Z,4204
2017-08-24T08:13:19.233Z,3820
2017-08-24T08:14:29.469Z,3404
2017-08-24T08:15:39.395Z,3076
2017-08-24T08:16:49.012Z,3860
2017-08-24T08:17:58.936Z,3424
2017-08-24T08:19:08.614Z,2824
2017-08-24T08:20:17.949Z,3728
2017-08-24T08:21:27.561Z,3728
2017-08-24T08:22:37.502Z,3824
2017-08-24T08:23:47.107Z,3740
2017-08-24T08:24:56.886Z,3740
2017-08-24T08:26:06.195Z,3608
2017-08-24T08:27:16.121Z,3404
2017-08-24T08:28:26.371Z,3024
2017-08-24T08:29:36.301Z,3812
2017-08-24T08:30:45.924Z,2784
2017-08-24T08:31:56.170Z,2368
2017-08-24T08:33:06.099Z,3468
2017-08-24T08:34:16.032Z,3916
2017-08-24T08:35:26.253Z,4080
2017-08-24T08:36:36.219Z,4208
2017-08-24T08:37:46.174Z,4036
2017-08-24T08:38:55.805Z,4232
2017-08-24T08:40:06.052Z,3204
2017-08-24T08:41:15.995Z,3728
2017-08-24T08:42:26.249Z,4148
2017-08-24T08:43:35.875Z,4244
2017-08-24T08:44:44.899Z,4176
2017-08-24T08:45:53.957Z,4012
2017-08-24T08:47:03.257Z,3988
2017-08-24T08:48:12.703Z,3776
2017-08-24T08:49:21.986Z,3756
2017-08-24T08:50:30.643Z,3708
2017-08-24T08:51:39.628Z,3752
2017-08-24T08:52:48.626Z,3676
2017-08-24T08:53:58.215Z,3596
2017-08-24T08:55:07.518Z,3588
2017-08-24T08:56:16.495Z,3740
2017-08-24T08:57:25.472Z,3624
2017-08-24T08:58:34.437Z,3668
2017-08-24T08:59:43.460Z,3432
2017-08-24T09:00:52.433Z,3700
2017-08-24T09:02:01.732Z,3676
2017-08-24T09:03:10.707Z,3616
2017-08-24T09:04:19.365Z,3552
2017-08-24T09:05:28.491Z,3736
2017-08-24T09:06:37.463Z,3548
2017-08-24T09:07:47.125Z,3524
2017-08-24T09:08:56.417Z,3516
2017-08-24T09:10:06.365Z,3420
2017-08-24T09:11:15.656Z,3460
2017-08-24T09:12:24.947Z,3404
2017-08-24T09:16:06.914Z,3104
2017-08-24T09:17:16.246Z,3152
2017-08-24T09:18:25.215Z,3008
2017-08-24T09:19:34.514Z,2924
2017-08-24T09:20:43.487Z,3100
2017-08-24T09:21:52.503Z,3080
2017-08-24T09:23:02.795Z,3184
2017-08-24T09:24:12.400Z,3432
2017-08-24T09:25:21.726Z,3392
2017-08-24T09:26:30.725Z,3320
2017-08-24T09:27:40.706Z,3172
2017-08-24T09:28:49.365Z,2884
2017-08-24T09:29:58.028Z,2784
2017-08-24T09:31:06.993Z,2576
2017-08-24T09:32:16.278Z,2852
2017-08-24T09:33:25.260Z,2584
2017-08-24T09:34:35.167Z,2672
2017-08-24T09:35:44.151Z,2548
2017-08-24T09:36:53.129Z,2616
2017-08-24T09:38:02.103Z,2716
2017-08-24T09:39:11.456Z,2496
2017-08-24T09:40:21.088Z,2280
2017-08-24T09:41:30.389Z,2444
2017-08-24T09:42:39.359Z,2028
2017-08-24T09:43:48.332Z,1880
2017-08-24T09:44:57.926Z,1660
2017-08-24T09:46:06.586Z,1780
2017-08-24T09:47:15.927Z,1888
2017-08-24T09:48:25.533Z,1864
2017-08-24T09:49:34.807Z,1900
2017-08-24T09:50:44.448Z,2016
2017-08-24T09:51:53.457Z,1960
2017-08-24T09:53:02.431Z,2276
2017-08-24T09:54:11.470Z,2432
2017-08-24T09:55:20.783Z,2576
2017-08-24T09:56:29.936Z,2656
2017-08-24T09:57:38.606Z,2676
2017-08-24T09:58:47.265Z,2400
2017-08-24T09:59:55.929Z,2156
2017-08-24T10:01:05.532Z,2032
2017-08-24T10:02:15.222Z,2440
2017-08-24T10:03:23.884Z,2648
2017-08-24T10:04:32.848Z,2752
2017-08-24T10:05:42.134Z,2740
2017-08-24T10:06:51.733Z,2788
2017-08-24T10:08:01.509Z,2848
2017-08-24T10:09:10.825Z,2832
2017-08-24T10:10:20.097Z,2780
2017-08-24T10:11:29.095Z,2804
2017-08-24T10:12:38.400Z,2844
2017-08-24T10:13:47.735Z,2896
2017-08-24T10:14:57.049Z,2884
2017-08-24T10:16:06.342Z,2696
2017-08-24T10:17:15.653Z,2628
2017-08-24T10:18:25.573Z,2700
2017-08-24T10:19:34.710Z,2688
2017-08-24T10:20:43.374Z,2564
2017-08-24T10:21:52.350Z,2268
2017-08-24T10:23:01.013Z,2320
2017-08-24T10:24:10.005Z,2228
2017-08-24T10:25:19.383Z,2068
2017-08-24T10:26:28.408Z,2016
2017-08-24T10:27:37.376Z,1764
2017-08-24T10:28:46.575Z,2096
2017-08-24T10:29:56.085Z,2156
2017-08-24T10:31:05.528Z,1844
2017-08-24T10:32:14.514Z,1356
2017-08-24T10:33:23.515Z,1368
2017-08-24T10:34:33.122Z,1768
2017-08-24T10:35:42.405Z,1732
2017-08-24T10:36:51.696Z,1524
2017-08-24T10:38:01.034Z,1260
2017-08-24T10:39:10.360Z,1324
2017-08-24T10:40:19.979Z,1340
2017-08-24T10:41:29.258Z,1304
2017-08-24T10:42:38.379Z,1296
2017-08-24T10:43:47.033Z,1276
2017-08-24T10:44:56.027Z,1244
2017-08-24T10:46:05.342Z,1204
2017-08-24T10:47:14.318Z,1096
2017-08-24T10:48:23.413Z,1072
2017-08-24T10:49:32.383Z,1096
2017-08-24T10:50:41.360Z,1116
2017-08-24T10:51:50.328Z,1084
2017-08-24T10:52:59.010Z,948
2017-08-24T10:54:07.986Z,892
2017-08-24T10:55:17.276Z,916
2017-08-24T10:56:26.892Z,952
2017-08-24T10:57:35.881Z,972
2017-08-24T10:58:44.867Z,1060
2017-08-24T10:59:54.264Z,1128
2017-08-24T11:01:03.558Z,1172
2017-08-24T11:02:12.555Z,1200
2017-08-24T11:03:22.169Z,1240
2017-08-24T11:04:31.146Z,1124
2017-08-24T11:05:40.336Z,1140
2017-08-24T11:06:49.405Z,1236
2017-08-24T11:07:58.343Z,1148
2017-08-24T11:09:07.338Z,1044
2017-08-24T11:10:15.988Z,984
2017-08-24T11:11:24.962Z,988
2017-08-24T11:12:34.246Z,1000
2017-08-24T11:13:43.606Z,1104
2017-08-24T11:14:53.232Z,1104
2017-08-24T11:16:02.531Z,1312
2017-08-24T11:17:11.507Z,1320
2017-08-24T11:18:21.761Z,1424
2017-08-24T11:19:31.082Z,1400
2017-08-24T11:20:40.069Z,1232
2017-08-24T11:21:49.053Z,1160
2017-08-24T11:22:58.179Z,1160
2017-08-24T11:24:07.469Z,1204
2017-08-24T11:25:16.499Z,1284
2017-08-24T11:26:25.186Z,1276
2017-08-24T11:27:34.170Z,1140
2017-08-24T11:28:43.000Z,1096
2017-08-24T11:29:52.612Z,1228
2017-08-24T11:31:01.588Z,1240
2017-08-24T11:32:10.618Z,1264
2017-08-24T11:33:20.257Z,1268
2017-08-24T11:34:30.016Z,1048
2017-08-24T11:35:38.990Z,924
2017-08-24T11:36:49.239Z,924
2017-08-24T11:37:58.233Z,1032
2017-08-24T11:39:07.191Z,956
2017-08-24T11:40:15.848Z,1016
2017-08-24T11:41:24.509Z,1268
2017-08-24T11:42:33.478Z,1420
2017-08-24T11:43:42.182Z,1488
2017-08-24T11:44:52.206Z,1312
2017-08-24T11:46:01.018Z,1460
2017-08-24T11:47:09.674Z,1656
2017-08-24T11:48:18.335Z,1404
2017-08-24T11:49:27.655Z,1056
2017-08-24T11:50:36.968Z,1048
2017-08-24T11:51:46.176Z,1416
2017-08-24T11:52:55.513Z,1468
2017-08-24T11:54:04.535Z,1296
2017-08-24T11:55:13.826Z,1176
2017-08-24T11:56:23.199Z,1008
2017-08-24T11:57:32.365Z,1016
2017-08-24T11:58:41.981Z,1032
2017-08-24T11:59:50.691Z,1004
2017-08-24T12:00:59.749Z,1028
2017-08-24T12:02:08.453Z,1104
2017-08-24T12:03:18.156Z,1172
2017-08-24T12:04:27.456Z,848
2017-08-24T12:05:36.444Z,848
2017-08-24T12:06:45.105Z,836
2017-08-24T12:07:54.397Z,944
2017-08-24T12:09:03.837Z,952
2017-08-24T12:10:12.819Z,1040
2017-08-24T12:11:21.484Z,1076
2017-08-24T12:12:30.474Z,956
2017-08-24T12:13:39.140Z,852
2017-08-24T12:14:48.261Z,868
2017-08-24T12:15:57.563Z,816
2017-08-24T12:17:06.853Z,760
2017-08-24T12:18:16.160Z,740
2017-08-24T12:19:24.813Z,712
2017-08-24T12:20:34.154Z,684
2017-08-24T12:21:44.085Z,628
2017-08-24T12:22:52.748Z,644
2017-08-24T12:24:02.036Z,652
2017-08-24T12:25:10.717Z,656
2017-08-24T12:26:19.469Z,664
2017-08-24T12:27:28.763Z,660
2017-08-24T12:28:37.772Z,668
2017-08-24T12:29:47.380Z,700
2017-08-24T12:30:56.391Z,692
2017-08-24T12:32:05.375Z,704
2017-08-24T12:33:14.372Z,724
2017-08-24T12:34:23.036Z,716
2017-08-24T12:35:32.043Z,728
2017-08-24T12:36:41.344Z,780
2017-08-24T12:37:50.650Z,740
2017-08-24T12:38:59.619Z,724
2017-08-24T12:40:08.281Z,728
2017-08-24T12:41:17.871Z,704
2017-08-24T12:42:26.850Z,704
2017-08-24T12:43:35.663Z,752
2017-08-24T12:44:44.741Z,712
2017-08-24T12:45:53.802Z,604
2017-08-24T12:47:02.845Z,808
2017-08-24T12:48:12.016Z,832
2017-08-24T12:49:20.676Z,756
2017-08-24T12:50:29.331Z,716
2017-08-24T12:51:38.810Z,564
2017-08-24T12:52:48.476Z,660
2017-08-24T12:53:57.629Z,656
2017-08-24T12:55:06.669Z,668
2017-08-24T12:56:15.352Z,604
2017-08-24T12:57:24.343Z,704
2017-08-24T12:58:33.324Z,872
2017-08-24T12:59:41.991Z,916
2017-08-24T13:00:50.951Z,940
2017-08-24T13:02:00.273Z,1052
2017-08-24T13:03:08.930Z,1176
2017-08-24T13:04:17.894Z,1156
2017-08-24T13:05:26.551Z,992
2017-08-24T13:06:35.883Z,748
2017-08-24T13:07:45.182Z,636
2017-08-24T13:08:54.176Z,604
2017-08-24T13:10:02.830Z,612
2017-08-24T13:11:11.816Z,696
2017-08-24T13:12:21.028Z,868
2017-08-24T13:13:30.004Z,988
2017-08-24T13:14:39.277Z,1000
2017-08-24T13:15:48.566Z,1072
2017-08-24T13:16:57.578Z,1028
2017-08-24T13:18:06.708Z,848
2017-08-24T13:19:15.390Z,1016
2017-08-24T13:20:24.977Z,1196
2017-08-24T13:21:33.988Z,984
2017-08-24T13:22:43.287Z,900
2017-08-24T13:23:52.927Z,960
2017-08-24T13:25:01.577Z,972
2017-08-24T13:26:11.882Z,884
2017-08-24T13:27:22.112Z,864
2017-08-24T13:28:30.781Z,924
2017-08-24T13:29:40.115Z,1156
2017-08-24T13:30:49.147Z,1256
2017-08-24T13:31:58.126Z,1152
2017-08-24T13:33:07.122Z,1120
2017-08-24T13:34:16.114Z,1108
2017-08-24T13:35:25.710Z,1036
2017-08-24T13:36:34.695Z,992
2017-08-24T13:37:43.673Z,944
2017-08-24T13:38:52.336Z,1040
2017-08-24T13:40:01.322Z,1064
2017-08-24T13:41:11.273Z,940
2017-08-24T13:42:20.883Z,1008
2017-08-24T13:43:29.871Z,996
2017-08-24T13:44:38.839Z,944
2017-08-24T13:45:48.143Z,960
2017-08-24T13:46:57.583Z,996
2017-08-24T13:48:06.876Z,980
2017-08-24T13:49:15.863Z,956
2017-08-24T13:50:25.470Z,1064
2017-08-24T13:51:35.080Z,1112
2017-08-24T13:52:43.859Z,1060
2017-08-24T13:53:53.768Z,1076
2017-08-24T13:55:03.405Z,1192
2017-08-24T13:56:12.376Z,1200
2017-08-24T13:57:21.670Z,1160
2017-08-24T13:58:31.263Z,1108
2017-08-24T13:59:40.302Z,1044
2017-08-24T14:00:49.613Z,1052
2017-08-24T14:01:58.290Z,1024
2017-08-24T14:03:06.948Z,1068
2017-08-24T14:04:15.669Z,1052
2017-08-24T14:05:24.648Z,1208
2017-08-24T14:06:33.947Z,1228
2017-08-24T14:07:42.618Z,1132
2017-08-24T14:08:51.612Z,1124
2017-08-24T14:10:01.372Z,1004
2017-08-24T14:11:10.986Z,888
2017-08-24T14:12:19.945Z,820
2017-08-24T14:13:29.562Z,760
2017-08-24T14:14:38.847Z,720
2017-08-24T14:15:47.993Z,700
2017-08-24T14:16:57.297Z,708
2017-08-24T14:18:06.588Z,748
2017-08-24T14:19:15.601Z,724
2017-08-24T14:20:24.898Z,836
2017-08-24T14:21:33.708Z,952
2017-08-24T14:22:42.694Z,1076
2017-08-24T14:23:51.670Z,1136
2017-08-24T14:25:00.642Z,1204
2017-08-24T14:26:09.623Z,1352
2017-08-24T14:27:19.081Z,1276
2017-08-24T14:28:28.078Z,1100
2017-08-24T14:29:37.419Z,944
2017-08-24T14:30:47.022Z,800
2017-08-24T14:31:56.340Z,628
2017-08-24T14:33:05.160Z,528
2017-08-24T14:34:14.137Z,484
2017-08-24T14:35:23.131Z,480
2017-08-24T14:36:32.126Z,464
2017-08-24T14:37:40.814Z,528
2017-08-24T14:38:50.244Z,552
2017-08-24T14:39:59.231Z,560
2017-08-24T14:41:09.161Z,492
2017-08-24T14:42:18.144Z,572
2017-08-24T14:43:27.129Z,676
2017-08-24T14:44:35.958Z,800
2017-08-24T14:45:44.941Z,852
2017-08-24T14:46:54.546Z,856
2017-08-24T14:48:03.852Z,736
2017-08-24T14:49:13.157Z,624
2017-08-24T14:50:21.817Z,640
2017-08-24T14:51:30.810Z,600
2017-08-24T14:52:39.811Z,652
2017-08-24T14:53:48.798Z,600
2017-08-24T14:54:57.455Z,568
2017-08-24T14:56:06.538Z,580
2017-08-24T14:57:15.861Z,692
2017-08-24T14:58:24.838Z,728
2017-08-24T14:59:33.829Z,772
2017-08-24T15:00:43.108Z,752
2017-08-24T15:01:52.394Z,860
2017-08-24T15:03:01.399Z,1004
2017-08-24T15:04:10.355Z,1004
2017-08-24T15:05:19.639Z,880
2017-08-24T15:06:28.300Z,1016
2017-08-24T15:07:37.114Z,932
2017-08-24T15:08:46.407Z,860
2017-08-24T15:09:55.373Z,844
2017-08-24T15:11:04.035Z,768
2017-08-24T15:12:13.644Z,772
2017-08-24T15:13:23.078Z,760
2017-08-24T15:14:32.695Z,712
2017-08-24T15:15:41.377Z,660
2017-08-24T15:16:50.347Z,620
2017-08-24T15:17:59.634Z,588
2017-08-24T15:19:08.940Z,568
2017-08-24T15:20:17.596Z,524
2017-08-24T15:21:26.887Z,484
2017-08-24T15:22:35.871Z,500
2017-08-24T15:23:45.461Z,452
2017-08-24T15:24:54.551Z,480
2017-08-24T15:26:03.851Z,532
2017-08-24T15:27:12.837Z,596
2017-08-24T15:28:21.812Z,732
2017-08-24T15:29:30.802Z,804
2017-08-24T15:30:40.376Z,772
2017-08-24T15:31:49.036Z,680
2017-08-24T15:32:58.335Z,728
2017-08-24T15:34:07.330Z,732
2017-08-24T15:35:15.994Z,616
2017-08-24T15:36:25.110Z,600
2017-08-24T15:37:34.080Z,636
2017-08-24T15:38:43.401Z,572
2017-08-24T15:39:52.371Z,580
2017-08-24T15:41:01.335Z,592
2017-08-24T15:42:10.412Z,640
2017-08-24T15:43:19.371Z,620
2017-08-24T15:44:28.345Z,580
2017-08-24T15:45:37.626Z,508
2017-08-24T15:46:46.911Z,504
2017-08-24T15:47:56.037Z,576
2017-08-24T15:49:05.013Z,596
2017-08-24T15:50:14.009Z,676
2017-08-24T15:51:23.613Z,664
2017-08-24T15:52:32.616Z,612
2017-08-24T15:53:41.341Z,580
2017-08-24T15:54:50.649Z,572
2017-08-24T15:55:59.962Z,564
2017-08-24T15:57:09.554Z,604
2017-08-24T15:58:19.489Z,604
2017-08-24T15:59:28.307Z,508
2017-08-24T16:00:37.275Z,504
2017-08-24T16:01:46.239Z,520
2017-08-24T16:02:55.205Z,540
2017-08-24T16:04:04.170Z,552
2017-08-24T16:05:12.837Z,564
2017-08-24T16:06:21.788Z,596
2017-08-24T16:07:30.758Z,604
2017-08-24T16:08:40.048Z,528
2017-08-24T16:09:49.325Z,496
2017-08-24T16:10:58.140Z,524